sensor_id;sensor_type;location;lat;lon;timestamp;pressure;altitude;pressure_sealevel;temperature;humidity
67517;BME280;54359;59.124;37.910;2023-01-10T00:01:42;101947.44;;;-21.42;73.54
67517;BME280;54359;59.124;37.910;2023-01-10T00:04:09;101935.09;;;-21.47;73.73
67517;BME280;54359;59.124;37.910;2023-01-10T00:06:35;101943.22;;;-21.43;72.98
67517;BME280;54359;59.124;37.910;2023-01-10T00:09:01;101952.16;;;-21.38;73.55
67517;BME280;54359;59.124;37.910;2023-01-10T00:11:27;101950.84;;;-21.36;73.61
67517;BME280;54359;59.124;37.910;2023-01-10T00:14:12;101943.13;;;-21.33;73.61
67517;BME280;54359;59.124;37.910;2023-01-10T00:16:38;101947.00;;;-21.30;72.98
67517;BME280;54359;59.124;37.910;2023-01-10T00:19:05;101953.91;;;-21.27;73.40
67517;BME280;54359;59.124;37.910;2023-01-10T00:21:31;101960.88;;;-21.24;73.61
67517;BME280;54359;59.124;37.910;2023-01-10T00:23:57;101943.53;;;-21.26;73.55
67517;BME280;54359;59.124;37.910;2023-01-10T00:26:38;101952.13;;;-21.18;73.65
67517;BME280;54359;59.124;37.910;2023-01-10T00:29:05;101957.50;;;-21.15;73.59
67517;BME280;54359;59.124;37.910;2023-01-10T00:31:32;101954.56;;;-21.18;73.23
67517;BME280;54359;59.124;37.910;2023-01-10T00:33:58;101951.84;;;-21.10;73.00
67517;BME280;54359;59.124;37.910;2023-01-10T00:36:25;101935.94;;;-21.18;73.65
67517;BME280;54359;59.124;37.910;2023-01-10T00:38:51;101952.59;;;-21.05;73.69
67517;BME280;54359;59.124;37.910;2023-01-10T00:41:17;101954.66;;;-21.13;73.43
67517;BME280;54359;59.124;37.910;2023-01-10T00:44:01;101956.19;;;-21.03;73.54
67517;BME280;54359;59.124;37.910;2023-01-10T00:46:27;101953.63;;;-21.09;73.07
67517;BME280;54359;59.124;37.910;2023-01-10T00:48:53;101948.34;;;-21.06;72.84
67517;BME280;54359;59.124;37.910;2023-01-10T00:51:20;101952.34;;;-21.07;73.56
67517;BME280;54359;59.124;37.910;2023-01-10T00:53:46;101944.00;;;-21.13;73.09
67517;BME280;54359;59.124;37.910;2023-01-10T00:56:12;101937.72;;;-21.17;73.45
67517;BME280;54359;59.124;37.910;2023-01-10T00:58:38;101939.00;;;-21.19;72.93
67517;BME280;54359;59.124;37.910;2023-01-10T01:01:04;101941.69;;;-21.17;73.71
67517;BME280;54359;59.124;37.910;2023-01-10T01:03:30;101934.25;;;-21.23;73.71
67517;BME280;54359;59.124;37.910;2023-01-10T01:05:56;101935.81;;;-21.23;73.30
67517;BME280;54359;59.124;37.910;2023-01-10T01:08:22;101923.59;;;-21.23;73.77
67517;BME280;54359;59.124;37.910;2023-01-10T01:10:49;101908.47;;;-21.26;73.29
67517;BME280;54359;59.124;37.910;2023-01-10T01:13:18;101908.19;;;-21.28;73.45
67517;BME280;54359;59.124;37.910;2023-01-10T01:15:46;101910.09;;;-21.21;73.68
67517;BME280;54359;59.124;37.910;2023-01-10T01:18:15;101903.91;;;-21.19;73.23
67517;BME280;54359;59.124;37.910;2023-01-10T01:20:43;101896.59;;;-21.19;73.55
67517;BME280;54359;59.124;37.910;2023-01-10T01:23:13;101907.25;;;-21.19;73.23
67517;BME280;54359;59.124;37.910;2023-01-10T01:25:40;101888.94;;;-21.26;73.77
67517;BME280;54359;59.124;37.910;2023-01-10T01:28:06;101893.38;;;-21.14;73.41
67517;BME280;54359;59.124;37.910;2023-01-10T01:30:32;101897.19;;;-21.11;73.80
67517;BME280;54359;59.124;37.910;2023-01-10T01:32:59;101899.00;;;-21.10;72.97
67517;BME280;54359;59.124;37.910;2023-01-10T01:35:25;101887.94;;;-21.07;73.02
67517;BME280;54359;59.124;37.910;2023-01-10T01:37:51;101897.97;;;-21.06;73.43
67517;BME280;54359;59.124;37.910;2023-01-10T01:40:20;101891.81;;;-21.04;73.50
67517;BME280;54359;59.124;37.910;2023-01-10T01:42:47;101890.88;;;-21.04;73.72
67517;BME280;54359;59.124;37.910;2023-01-10T01:47:46;101881.13;;;-21.04;74.07
67517;BME280;54359;59.124;37.910;2023-01-10T01:50:41;101895.41;;;-21.02;74.08
67517;BME280;54359;59.124;37.910;2023-01-10T01:53:16;101881.78;;;-21.05;73.22
67517;BME280;54359;59.124;37.910;2023-01-10T01:55:44;101876.88;;;-21.05;73.67
67517;BME280;54359;59.124;37.910;2023-01-10T01:58:14;101870.44;;;-21.05;73.28
67517;BME280;54359;59.124;37.910;2023-01-10T02:00:41;101882.13;;;-20.98;73.75
67517;BME280;54359;59.124;37.910;2023-01-10T02:03:07;101865.41;;;-21.01;73.13
67517;BME280;54359;59.124;37.910;2023-01-10T02:05:36;101862.97;;;-21.01;73.66
67517;BME280;54359;59.124;37.910;2023-01-10T02:08:04;101870.81;;;-20.98;73.34
67517;BME280;54359;59.124;37.910;2023-01-10T02:13:18;101870.00;;;-20.93;73.90
67517;BME280;54359;59.124;37.910;2023-01-10T02:15:46;101861.13;;;-20.92;73.60
67517;BME280;54359;59.124;37.910;2023-01-10T02:18:12;101859.47;;;-20.87;74.09
67517;BME280;54359;59.124;37.910;2023-01-10T02:23:51;101866.88;;;-20.82;73.36
67517;BME280;54359;59.124;37.910;2023-01-10T02:34:37;101847.69;;;-20.75;73.72
67517;BME280;54359;59.124;37.910;2023-01-10T02:37:20;101843.69;;;-20.74;73.66
67517;BME280;54359;59.124;37.910;2023-01-10T02:47:48;101841.44;;;-20.63;73.53
67517;BME280;54359;59.124;37.910;2023-01-10T02:53:06;101815.59;;;-20.66;73.53
67517;BME280;54359;59.124;37.910;2023-01-10T02:56:11;101826.78;;;-20.63;74.06
67517;BME280;54359;59.124;37.910;2023-01-10T02:58:58;101821.13;;;-20.67;74.17
67517;BME280;54359;59.124;37.910;2023-01-10T03:15:28;101825.97;;;-20.58;74.08
67517;BME280;54359;59.124;37.910;2023-01-10T03:17:58;101830.84;;;-20.58;73.41
67517;BME280;54359;59.124;37.910;2023-01-10T03:20:30;101824.81;;;-20.60;73.91
67517;BME280;54359;59.124;37.910;2023-01-10T03:23:00;101820.63;;;-20.55;74.09
67517;BME280;54359;59.124;37.910;2023-01-10T03:25:32;101828.72;;;-20.51;74.10
67517;BME280;54359;59.124;37.910;2023-01-10T03:30:54;101823.00;;;-20.45;73.67
67517;BME280;54359;59.124;37.910;2023-01-10T03:33:30;101801.91;;;-20.45;73.61
67517;BME280;54359;59.124;37.910;2023-01-10T03:36:16;101815.78;;;-20.40;74.03
67517;BME280;54359;59.124;37.910;2023-01-10T03:38:51;101802.88;;;-20.39;74.09
67517;BME280;54359;59.124;37.910;2023-01-10T03:49:40;101821.13;;;-20.37;73.88
67517;BME280;54359;59.124;37.910;2023-01-10T03:52:11;101817.63;;;-20.33;74.06
67517;BME280;54359;59.124;37.910;2023-01-10T03:54:41;101798.50;;;-20.36;73.40
67517;BME280;54359;59.124;37.910;2023-01-10T03:57:07;101796.69;;;-20.37;73.74
67517;BME280;54359;59.124;37.910;2023-01-10T03:59:39;101788.47;;;-20.37;73.70
67517;BME280;54359;59.124;37.910;2023-01-10T04:02:05;101809.25;;;-20.30;73.63
67517;BME280;54359;59.124;37.910;2023-01-10T04:04:31;101806.38;;;-20.27;73.87
67517;BME280;54359;59.124;37.910;2023-01-10T04:06:57;101801.09;;;-20.24;73.85
67517;BME280;54359;59.124;37.910;2023-01-10T04:09:23;101784.88;;;-20.24;73.75
67517;BME280;54359;59.124;37.910;2023-01-10T04:11:48;101783.81;;;-20.20;73.52
67517;BME280;54359;59.124;37.910;2023-01-10T04:14:14;101790.50;;;-20.19;73.98
67517;BME280;54359;59.124;37.910;2023-01-10T04:16:40;101778.53;;;-20.18;74.08
67517;BME280;54359;59.124;37.910;2023-01-10T04:19:06;101777.22;;;-20.16;74.37
67517;BME280;54359;59.124;37.910;2023-01-10T04:21:33;101770.25;;;-20.18;73.94
67517;BME280;54359;59.124;37.910;2023-01-10T04:23:59;101778.81;;;-20.11;73.87
67517;BME280;54359;59.124;37.910;2023-01-10T04:26:24;101775.06;;;-20.09;74.20
67517;BME280;54359;59.124;37.910;2023-01-10T04:28:50;101757.66;;;-20.16;73.97
67517;BME280;54359;59.124;37.910;2023-01-10T04:31:16;101770.00;;;-20.04;74.04
67517;BME280;54359;59.124;37.910;2023-01-10T04:33:44;101765.78;;;-20.05;73.76
67517;BME280;54359;59.124;37.910;2023-01-10T04:36:11;101745.88;;;-20.13;73.98
67517;BME280;54359;59.124;37.910;2023-01-10T04:38:38;101768.53;;;-19.98;74.20
67517;BME280;54359;59.124;37.910;2023-01-10T04:41:05;101775.44;;;-19.96;74.29
67517;BME280;54359;59.124;37.910;2023-01-10T04:43:32;101761.69;;;-19.95;74.47
67517;BME280;54359;59.124;37.910;2023-01-10T04:45:58;101745.88;;;-19.97;74.21
67517;BME280;54359;59.124;37.910;2023-01-10T04:48:24;101754.28;;;-20.01;74.14
67517;BME280;54359;59.124;37.910;2023-01-10T04:50:53;101750.09;;;-19.96;73.98
67517;BME280;54359;59.124;37.910;2023-01-10T04:53:20;101755.88;;;-19.96;74.09
67517;BME280;54359;59.124;37.910;2023-01-10T04:55:46;101744.97;;;-19.98;73.94
67517;BME280;54359;59.124;37.910;2023-01-10T04:58:12;101749.47;;;-19.95;74.32
67517;BME280;54359;59.124;37.910;2023-01-10T05:00:38;101759.88;;;-19.96;74.21
67517;BME280;54359;59.124;37.910;2023-01-10T05:03:04;101748.78;;;-19.94;74.00
67517;BME280;54359;59.124;37.910;2023-01-10T05:05:30;101737.16;;;-20.01;73.85
67517;BME280;54359;59.124;37.910;2023-01-10T05:07:58;101741.63;;;-19.98;74.32
67517;BME280;54359;59.124;37.910;2023-01-10T05:10:24;101747.41;;;-19.98;74.26
67517;BME280;54359;59.124;37.910;2023-01-10T05:12:50;101736.97;;;-19.97;74.20
67517;BME280;54359;59.124;37.910;2023-01-10T05:15:16;101746.41;;;-19.89;74.30
67517;BME280;54359;59.124;37.910;2023-01-10T05:17:42;101750.00;;;-19.86;73.98
67517;BME280;54359;59.124;37.910;2023-01-10T05:20:09;101747.81;;;-19.85;74.63
67517;BME280;54359;59.124;37.910;2023-01-10T05:22:35;101748.28;;;-19.82;73.89
67517;BME280;54359;59.124;37.910;2023-01-10T05:25:01;101732.63;;;-19.88;74.19
67517;BME280;54359;59.124;37.910;2023-01-10T05:27:28;101740.50;;;-19.79;74.41
67517;BME280;54359;59.124;37.910;2023-01-10T05:29:53;101737.16;;;-19.80;74.43
67517;BME280;54359;59.124;37.910;2023-01-10T05:32:19;101720.53;;;-19.77;74.29
67517;BME280;54359;59.124;37.910;2023-01-10T05:34:45;101716.78;;;-19.75;74.44
67517;BME280;54359;59.124;37.910;2023-01-10T05:37:11;101722.31;;;-19.76;74.21
67517;BME280;54359;59.124;37.910;2023-01-10T05:39:38;101716.78;;;-19.75;74.19
67517;BME280;54359;59.124;37.910;2023-01-10T05:42:05;101709.13;;;-19.82;74.17
67517;BME280;54359;59.124;37.910;2023-01-10T05:44:31;101714.09;;;-19.76;74.25
67517;BME280;54359;59.124;37.910;2023-01-10T05:46:57;101700.03;;;-19.77;74.49
67517;BME280;54359;59.124;37.910;2023-01-10T05:49:23;101694.25;;;-19.78;74.25
67517;BME280;54359;59.124;37.910;2023-01-10T05:51:49;101713.44;;;-19.70;74.65
67517;BME280;54359;59.124;37.910;2023-01-10T05:54:15;101707.47;;;-19.66;74.52
67517;BME280;54359;59.124;37.910;2023-01-10T05:56:44;101704.16;;;-19.67;74.46
67517;BME280;54359;59.124;37.910;2023-01-10T05:59:10;101707.56;;;-19.60;74.67
67517;BME280;54359;59.124;37.910;2023-01-10T06:01:37;101706.88;;;-19.59;74.79
67517;BME280;54359;59.124;37.910;2023-01-10T06:04:04;101709.22;;;-19.50;74.33
67517;BME280;54359;59.124;37.910;2023-01-10T06:06:32;101705.56;;;-19.57;74.37
67517;BME280;54359;59.124;37.910;2023-01-10T06:08:59;101698.09;;;-19.48;74.86
67517;BME280;54359;59.124;37.910;2023-01-10T06:11:25;101711.03;;;-19.43;74.59
67517;BME280;54359;59.124;37.910;2023-01-10T06:13:57;101714.88;;;-19.39;74.60
67517;BME280;54359;59.124;37.910;2023-01-10T06:16:25;101688.75;;;-19.44;74.58
67517;BME280;54359;59.124;37.910;2023-01-10T06:18:51;101694.41;;;-19.40;74.42
67517;BME280;54359;59.124;37.910;2023-01-10T06:21:19;101698.56;;;-19.23;74.93
67517;BME280;54359;59.124;37.910;2023-01-10T06:23:45;101707.25;;;-19.20;74.54
67517;BME280;54359;59.124;37.910;2023-01-10T06:26:11;101689.00;;;-19.16;75.09
67517;BME280;54359;59.124;37.910;2023-01-10T06:28:37;101691.53;;;-19.11;74.81
67517;BME280;54359;59.124;37.910;2023-01-10T06:31:07;101687.13;;;-19.02;75.24
67517;BME280;54359;59.124;37.910;2023-01-10T06:33:36;101675.81;;;-18.96;75.23
67517;BME280;54359;59.124;37.910;2023-01-10T06:36:04;101670.47;;;-18.93;75.13
67517;BME280;54359;59.124;37.910;2023-01-10T06:38:31;101667.41;;;-18.87;75.38
67517;BME280;54359;59.124;37.910;2023-01-10T06:40:57;101676.59;;;-18.74;75.11
67517;BME280;54359;59.124;37.910;2023-01-10T06:43:23;101680.19;;;-18.67;75.47
67517;BME280;54359;59.124;37.910;2023-01-10T06:45:49;101686.94;;;-18.60;75.14
67517;BME280;54359;59.124;37.910;2023-01-10T06:48:15;101690.28;;;-18.59;75.45
67517;BME280;54359;59.124;37.910;2023-01-10T06:50:41;101677.16;;;-18.54;75.46
67517;BME280;54359;59.124;37.910;2023-01-10T06:53:07;101698.41;;;-18.43;75.42
67517;BME280;54359;59.124;37.910;2023-01-10T06:55:33;101699.34;;;-18.37;76.29
67517;BME280;54359;59.124;37.910;2023-01-10T06:58:01;101680.16;;;-18.34;76.05
67517;BME280;54359;59.124;37.910;2023-01-10T07:00:28;101673.03;;;-18.33;75.62
67517;BME280;54359;59.124;37.910;2023-01-10T07:02:57;101685.09;;;-18.29;75.59
67517;BME280;54359;59.124;37.910;2023-01-10T07:05:24;101660.28;;;-18.36;75.81
67517;BME280;54359;59.124;37.910;2023-01-10T07:07:53;101681.28;;;-18.32;75.49
67517;BME280;54359;59.124;37.910;2023-01-10T07:10:19;101675.53;;;-18.27;76.19
67517;BME280;54359;59.124;37.910;2023-01-10T07:12:45;101683.13;;;-18.20;75.91
67517;BME280;54359;59.124;37.910;2023-01-10T07:15:11;101678.00;;;-18.16;76.37
67517;BME280;54359;59.124;37.910;2023-01-10T07:17:38;101670.00;;;-18.15;75.48
67517;BME280;54359;59.124;37.910;2023-01-10T07:20:04;101655.91;;;-18.16;76.49
67517;BME280;54359;59.124;37.910;2023-01-10T07:22:30;101676.53;;;-17.98;75.87
67517;BME280;54359;59.124;37.910;2023-01-10T07:24:56;101677.19;;;-17.99;75.73
67517;BME280;54359;59.124;37.910;2023-01-10T07:27:24;101672.75;;;-17.96;76.84
67517;BME280;54359;59.124;37.910;2023-01-10T07:29:52;101668.94;;;-17.89;75.62
67517;BME280;54359;59.124;37.910;2023-01-10T07:32:18;101661.16;;;-17.86;75.81
67517;BME280;54359;59.124;37.910;2023-01-10T07:34:44;101656.00;;;-17.82;76.33
67517;BME280;54359;59.124;37.910;2023-01-10T07:37:09;101644.84;;;-17.80;76.43
67517;BME280;54359;59.124;37.910;2023-01-10T07:39:36;101637.50;;;-17.69;77.24
67517;BME280;54359;59.124;37.910;2023-01-10T07:42:03;101621.66;;;-17.65;77.47
67517;BME280;54359;59.124;37.910;2023-01-10T07:44:32;101624.31;;;-17.69;77.40
67517;BME280;54359;59.124;37.910;2023-01-10T07:46:58;101641.97;;;-17.55;76.66
67517;BME280;54359;59.124;37.910;2023-01-10T07:49:24;101632.59;;;-17.63;76.76
67517;BME280;54359;59.124;37.910;2023-01-10T07:51:52;101623.66;;;-17.63;76.52
67517;BME280;54359;59.124;37.910;2023-01-10T07:54:18;101616.06;;;-17.70;76.67
67517;BME280;54359;59.124;37.910;2023-01-10T07:56:47;101629.69;;;-17.55;76.20
67517;BME280;54359;59.124;37.910;2023-01-10T07:59:17;101627.91;;;-17.56;76.66
67517;BME280;54359;59.124;37.910;2023-01-10T08:01:45;101620.75;;;-17.54;76.73
67517;BME280;54359;59.124;37.910;2023-01-10T08:04:13;101617.22;;;-17.45;76.42
67517;BME280;54359;59.124;37.910;2023-01-10T08:06:44;101602.88;;;-17.48;77.03
67517;BME280;54359;59.124;37.910;2023-01-10T08:09:10;101599.56;;;-17.37;76.52
67517;BME280;54359;59.124;37.910;2023-01-10T08:11:38;101602.00;;;-17.31;77.66
67517;BME280;54359;59.124;37.910;2023-01-10T08:14:04;101596.44;;;-17.30;77.17
67517;BME280;54359;59.124;37.910;2023-01-10T08:16:30;101598.44;;;-17.22;77.71
67517;BME280;54359;59.124;37.910;2023-01-10T08:18:59;101592.63;;;-17.23;77.82
67517;BME280;54359;59.124;37.910;2023-01-10T08:21:28;101565.38;;;-17.18;77.21
67517;BME280;54359;59.124;37.910;2023-01-10T08:23:53;101573.16;;;-17.21;76.78
67517;BME280;54359;59.124;37.910;2023-01-10T08:26:23;101574.97;;;-17.20;76.72
67517;BME280;54359;59.124;37.910;2023-01-10T08:28:51;101548.59;;;-17.21;76.70
67517;BME280;54359;59.124;37.910;2023-01-10T08:31:21;101569.38;;;-17.19;77.40
67517;BME280;54359;59.124;37.910;2023-01-10T08:33:51;101548.84;;;-17.36;76.82
67517;BME280;54359;59.124;37.910;2023-01-10T08:36:20;101547.06;;;-17.26;77.08
67517;BME280;54359;59.124;37.910;2023-01-10T08:38:53;101538.09;;;-17.20;77.57
67517;BME280;54359;59.124;37.910;2023-01-10T08:41:29;101558.63;;;-17.08;77.79
67517;BME280;54359;59.124;37.910;2023-01-10T08:44:18;101538.28;;;-17.13;77.10
67517;BME280;54359;59.124;37.910;2023-01-10T08:47:09;101555.25;;;-16.97;77.79
67517;BME280;54359;59.124;37.910;2023-01-10T08:49:39;101545.84;;;-16.94;76.85
67517;BME280;54359;59.124;37.910;2023-01-10T08:52:05;101551.00;;;-16.93;76.92
67517;BME280;54359;59.124;37.910;2023-01-10T08:54:36;101541.38;;;-16.97;77.24
67517;BME280;54359;59.124;37.910;2023-01-10T08:57:11;101545.41;;;-16.92;77.12
67517;BME280;54359;59.124;37.910;2023-01-10T08:59:42;101542.25;;;-16.85;77.15
67517;BME280;54359;59.124;37.910;2023-01-10T09:02:12;101515.22;;;-16.91;77.27
67517;BME280;54359;59.124;37.910;2023-01-10T09:04:48;101545.53;;;-16.73;77.61
67517;BME280;54359;59.124;37.910;2023-01-10T09:07:29;101562.47;;;-16.58;77.31
67517;BME280;54359;59.124;37.910;2023-01-10T09:09:58;101544.38;;;-16.64;77.24
67517;BME280;54359;59.124;37.910;2023-01-10T09:12:58;101549.91;;;-16.48;77.06
67517;BME280;54359;59.124;37.910;2023-01-10T09:15:37;101529.09;;;-16.50;78.04
67517;BME280;54359;59.124;37.910;2023-01-10T09:18:34;101541.50;;;-16.26;78.15
67517;BME280;54359;59.124;37.910;2023-01-10T09:21:29;101523.94;;;-16.11;78.08
67517;BME280;54359;59.124;37.910;2023-01-10T09:24:21;101508.16;;;-16.24;78.01
67517;BME280;54359;59.124;37.910;2023-01-10T09:26:54;101518.56;;;-16.08;77.58
67517;BME280;54359;59.124;37.910;2023-01-10T09:29:22;101518.53;;;-16.03;77.74
67517;BME280;54359;59.124;37.910;2023-01-10T09:31:53;101491.78;;;-16.18;77.80
67517;BME280;54359;59.124;37.910;2023-01-10T09:34:23;101499.81;;;-16.13;77.63
67517;BME280;54359;59.124;37.910;2023-01-10T09:36:54;101491.47;;;-16.08;77.36
67517;BME280;54359;59.124;37.910;2023-01-10T09:39:49;101507.06;;;-15.96;78.03
67517;BME280;54359;59.124;37.910;2023-01-10T09:49:01;101504.69;;;-15.78;77.87
67517;BME280;54359;59.124;37.910;2023-01-10T09:51:38;101462.66;;;-15.85;77.84
67517;BME280;54359;59.124;37.910;2023-01-10T09:54:52;101492.88;;;-15.86;77.72
67517;BME280;54359;59.124;37.910;2023-01-10T09:57:43;101506.88;;;-15.74;77.61
67517;BME280;54359;59.124;37.910;2023-01-10T10:00:17;101474.50;;;-15.83;77.41
67517;BME280;54359;59.124;37.910;2023-01-10T10:03:43;101495.34;;;-15.62;78.17
67517;BME280;54359;59.124;37.910;2023-01-10T10:06:18;101498.19;;;-15.59;77.80
67517;BME280;54359;59.124;37.910;2023-01-10T10:08:46;101467.13;;;-15.88;77.24
67517;BME280;54359;59.124;37.910;2023-01-10T10:15:01;101472.28;;;-15.63;77.96
67517;BME280;54359;59.124;37.910;2023-01-10T10:17:43;101491.06;;;-15.63;77.59
67517;BME280;54359;59.124;37.910;2023-01-10T10:26:34;101474.53;;;-15.64;78.17
67517;BME280;54359;59.124;37.910;2023-01-10T10:29:22;101478.41;;;-15.48;78.50
67517;BME280;54359;59.124;37.910;2023-01-10T10:35:37;101463.94;;;-15.15;78.59
67517;BME280;54359;59.124;37.910;2023-01-10T10:38:13;101468.09;;;-15.08;78.58
67517;BME280;54359;59.124;37.910;2023-01-10T10:40:43;101435.75;;;-15.23;78.92
67517;BME280;54359;59.124;37.910;2023-01-10T10:43:21;101445.25;;;-15.07;78.49
67517;BME280;54359;59.124;37.910;2023-01-10T10:46:15;101469.00;;;-14.89;77.70
67517;BME280;54359;59.124;37.910;2023-01-10T10:49:21;101462.28;;;-14.90;77.91
67517;BME280;54359;59.124;37.910;2023-01-10T10:52:01;101423.31;;;-15.11;78.19
67517;BME280;54359;59.124;37.910;2023-01-10T10:54:38;101452.09;;;-14.81;79.17
67517;BME280;54359;59.124;37.910;2023-01-10T10:57:05;101436.66;;;-14.85;78.80
67517;BME280;54359;59.124;37.910;2023-01-10T10:59:34;101441.03;;;-14.77;77.73
67517;BME280;54359;59.124;37.910;2023-01-10T11:02:23;101414.13;;;-14.94;78.43
67517;BME280;54359;59.124;37.910;2023-01-10T11:05:16;101445.81;;;-14.66;78.73
67517;BME280;54359;59.124;37.910;2023-01-10T11:07:44;101430.13;;;-14.66;78.79
67517;BME280;54359;59.124;37.910;2023-01-10T11:10:18;101446.56;;;-14.41;78.43
67517;BME280;54359;59.124;37.910;2023-01-10T11:13:20;101417.75;;;-14.35;79.32
67517;BME280;54359;59.124;37.910;2023-01-10T11:15:52;101434.38;;;-14.21;78.09
67517;BME280;54359;59.124;37.910;2023-01-10T11:18:24;101415.66;;;-14.32;78.38
67517;BME280;54359;59.124;37.910;2023-01-10T11:20:56;101439.47;;;-14.20;78.19
67517;BME280;54359;59.124;37.910;2023-01-10T11:23:49;101426.03;;;-14.22;78.47
67517;BME280;54359;59.124;37.910;2023-01-10T11:26:26;101371.47;;;-14.49;78.32
67517;BME280;54359;59.124;37.910;2023-01-10T11:31:54;101392.69;;;-14.25;78.99
67517;BME280;54359;59.124;37.910;2023-01-10T11:34:34;101402.34;;;-14.14;79.00
67517;BME280;54359;59.124;37.910;2023-01-10T11:37:20;101395.34;;;-14.11;78.09
67517;BME280;54359;59.124;37.910;2023-01-10T11:40:23;101367.97;;;-14.25;78.53
67517;BME280;54359;59.124;37.910;2023-01-10T11:42:53;101385.94;;;-14.13;78.88
67517;BME280;54359;59.124;37.910;2023-01-10T11:45:29;101391.81;;;-14.13;77.47
67517;BME280;54359;59.124;37.910;2023-01-10T11:48:38;101356.88;;;-14.47;77.85
67517;BME280;54359;59.124;37.910;2023-01-10T11:51:46;101366.56;;;-14.36;77.86
67517;BME280;54359;59.124;37.910;2023-01-10T11:54:24;101396.13;;;-14.18;77.65
67517;BME280;54359;59.124;37.910;2023-01-10T11:57:08;101374.59;;;-14.19;78.95
67517;BME280;54359;59.124;37.910;2023-01-10T11:59:56;101375.78;;;-14.22;77.83
67517;BME280;54359;59.124;37.910;2023-01-10T12:02:41;101356.50;;;-14.25;78.58
67517;BME280;54359;59.124;37.910;2023-01-10T12:05:20;101371.53;;;-14.23;77.72
67517;BME280;54359;59.124;37.910;2023-01-10T12:08:01;101364.81;;;-14.24;79.22
67517;BME280;54359;59.124;37.910;2023-01-10T12:10:33;101370.63;;;-14.24;79.21
67517;BME280;54359;59.124;37.910;2023-01-10T12:13:15;101335.38;;;-14.35;78.60
67517;BME280;54359;59.124;37.910;2023-01-10T12:15:43;101367.06;;;-14.26;78.16
67517;BME280;54359;59.124;37.910;2023-01-10T12:18:15;101372.50;;;-14.15;77.72
67517;BME280;54359;59.124;37.910;2023-01-10T12:20:47;101329.72;;;-14.34;78.88
67517;BME280;54359;59.124;37.910;2023-01-10T12:23:18;101334.59;;;-14.29;78.23
67517;BME280;54359;59.124;37.910;2023-01-10T12:25:46;101384.19;;;-14.14;78.25
67517;BME280;54359;59.124;37.910;2023-01-10T12:28:21;101383.31;;;-14.15;78.25
67517;BME280;54359;59.124;37.910;2023-01-10T12:30:50;101373.22;;;-14.16;78.76
67517;BME280;54359;59.124;37.910;2023-01-10T12:33:34;101375.47;;;-14.18;79.25
67517;BME280;54359;59.124;37.910;2023-01-10T12:39:21;101356.31;;;-14.26;79.26
67517;BME280;54359;59.124;37.910;2023-01-10T12:50:23;101371.25;;;-14.06;78.59
67517;BME280;54359;59.124;37.910;2023-01-10T12:53:10;101377.66;;;-14.01;79.47
67517;BME280;54359;59.124;37.910;2023-01-10T12:55:41;101367.78;;;-14.01;78.30
67517;BME280;54359;59.124;37.910;2023-01-10T13:01:16;101374.50;;;-13.87;78.04
67517;BME280;54359;59.124;37.910;2023-01-10T13:03:52;101361.78;;;-13.90;78.82
67517;BME280;54359;59.124;37.910;2023-01-10T13:06:29;101369.47;;;-13.82;79.17
67517;BME280;54359;59.124;37.910;2023-01-10T13:09:05;101340.13;;;-13.99;78.91
67517;BME280;54359;59.124;37.910;2023-01-10T13:11:40;101363.34;;;-13.78;78.28
67517;BME280;54359;59.124;37.910;2023-01-10T13:14:14;101359.28;;;-13.78;78.93
67517;BME280;54359;59.124;37.910;2023-01-10T13:20:17;101363.22;;;-13.72;78.04
67517;BME280;54359;59.124;37.910;2023-01-10T13:22:49;101362.53;;;-13.71;79.32
67517;BME280;54359;59.124;37.910;2023-01-10T13:28:17;101343.44;;;-13.72;79.02
67517;BME280;54359;59.124;37.910;2023-01-10T13:30:53;101338.31;;;-13.74;78.33
67517;BME280;54359;59.124;37.910;2023-01-10T13:33:29;101314.91;;;-13.83;78.37
67517;BME280;54359;59.124;37.910;2023-01-10T13:36:16;101346.13;;;-13.71;78.81
67517;BME280;54359;59.124;37.910;2023-01-10T13:39:42;101343.91;;;-13.62;78.76
67517;BME280;54359;59.124;37.910;2023-01-10T13:42:32;101340.75;;;-13.61;78.21
67517;BME280;54359;59.124;37.910;2023-01-10T13:45:23;101330.88;;;-13.61;78.89
67517;BME280;54359;59.124;37.910;2023-01-10T13:47:59;101327.91;;;-13.59;79.03
67517;BME280;54359;59.124;37.910;2023-01-10T13:50:57;101278.53;;;-13.84;78.65
67517;BME280;54359;59.124;37.910;2023-01-10T13:56:00;101298.28;;;-13.71;78.09
67517;BME280;54359;59.124;37.910;2023-01-10T13:58:41;101317.41;;;-13.50;79.67
67517;BME280;54359;59.124;37.910;2023-01-10T14:01:40;101294.06;;;-13.52;78.76
67517;BME280;54359;59.124;37.910;2023-01-10T14:04:29;101282.31;;;-13.61;78.94
67517;BME280;54359;59.124;37.910;2023-01-10T14:07:20;101276.75;;;-13.52;79.01
67517;BME280;54359;59.124;37.910;2023-01-10T14:09:58;101299.97;;;-13.45;79.08
67517;BME280;54359;59.124;37.910;2023-01-10T14:12:39;101321.09;;;-13.34;78.77
67517;BME280;54359;59.124;37.910;2023-01-10T14:15:28;101311.06;;;-13.28;78.45
67517;BME280;54359;59.124;37.910;2023-01-10T14:18:32;101319.75;;;-13.25;79.48
67517;BME280;54359;59.124;37.910;2023-01-10T14:21:03;101297.75;;;-13.36;79.39
67517;BME280;54359;59.124;37.910;2023-01-10T14:23:41;101302.78;;;-13.29;79.22
67517;BME280;54359;59.124;37.910;2023-01-10T14:29:28;101265.28;;;-13.52;78.88
67517;BME280;54359;59.124;37.910;2023-01-10T14:35:38;101288.44;;;-13.31;78.59
67517;BME280;54359;59.124;37.910;2023-01-10T14:38:19;101219.53;;;-13.55;78.25
67517;BME280;54359;59.124;37.910;2023-01-10T14:44:22;101245.31;;;-13.33;79.07
67517;BME280;54359;59.124;37.910;2023-01-10T14:47:32;101304.59;;;-13.01;79.18
67517;BME280;54359;59.124;37.910;2023-01-10T14:50:31;101292.63;;;-12.98;79.13